sensor_id;sensor_type;location;lat;lon;timestamp;P1;durP1;ratioP1;P2;durP2;ratioP2
32216;SDS011;67098;51.140;4.088;2023-03-01T00:01:27;19.00;;;10.75;;
32216;SDS011;67098;51.140;4.088;2023-03-01T00:03:55;19.13;;;10.07;;
32216;SDS011;67098;51.140;4.088;2023-03-01T00:06:22;18.90;;;9.73;;
32216;SDS011;67098;51.140;4.088;2023-03-01T00:08:48;16.73;;;9.25;;
32216;SDS011;67098;51.140;4.088;2023-03-01T00:13:57;16.38;;;8.93;;
32216;SDS011;67098;51.140;4.088;2023-03-01T00:16:28;24.65;;;10.80;;
32216;SDS011;67098;51.140;4.088;2023-03-01T00:18:58;18.42;;;10.15;;
32216;SDS011;67098;51.140;4.088;2023-03-01T00:21:25;20.08;;;10.90;;
32216;SDS011;67098;51.140;4.088;2023-03-01T00:23:51;21.83;;;10.60;;
32216;SDS011;67098;51.140;4.088;2023-03-01T00:26:18;20.10;;;11.00;;
32216;SDS011;67098;51.140;4.088;2023-03-01T00:28:45;21.80;;;11.15;;
32216;SDS011;67098;51.140;4.088;2023-03-01T00:31:15;27.10;;;11.85;;
32216;SDS011;67098;51.140;4.088;2023-03-01T00:33:42;18.67;;;11.00;;
32216;SDS011;67098;51.140;4.088;2023-03-01T00:36:09;22.60;;;11.43;;
32216;SDS011;67098;51.140;4.088;2023-03-01T00:38:36;21.30;;;10.35;;
32216;SDS011;67098;51.140;4.088;2023-03-01T00:41:04;21.98;;;11.15;;
32216;SDS011;67098;51.140;4.088;2023-03-01T00:43:34;20.55;;;10.38;;
32216;SDS011;67098;51.140;4.088;2023-03-01T00:46:07;18.70;;;10.68;;
32216;SDS011;67098;51.140;4.088;2023-03-01T00:48:35;20.38;;;10.93;;
32216;SDS011;67098;51.140;4.088;2023-03-01T00:53:55;22.95;;;11.02;;
32216;SDS011;67098;51.140;4.088;2023-03-01T00:56:22;20.30;;;11.27;;
32216;SDS011;67098;51.140;4.088;2023-03-01T00:58:48;22.00;;;11.75;;
32216;SDS011;67098;51.140;4.088;2023-03-01T01:01:24;21.92;;;11.10;;
32216;SDS011;67098;51.140;4.088;2023-03-01T01:03:57;20.02;;;11.38;;
32216;SDS011;67098;51.140;4.088;2023-03-01T01:06:29;22.77;;;11.43;;
32216;SDS011;67098;51.140;4.088;2023-03-01T01:08:57;23.27;;;11.02;;
32216;SDS011;67098;51.140;4.088;2023-03-01T01:11:24;19.17;;;10.35;;
32216;SDS011;67098;51.140;4.088;2023-03-01T01:13:50;21.50;;;11.10;;
32216;SDS011;67098;51.140;4.088;2023-03-01T01:16:17;19.80;;;10.43;;
32216;SDS011;67098;51.140;4.088;2023-03-01T01:18:44;17.50;;;10.45;;
32216;SDS011;67098;51.140;4.088;2023-03-01T01:21:11;21.77;;;10.45;;
32216;SDS011;67098;51.140;4.088;2023-03-01T01:23:39;18.17;;;10.13;;
32216;SDS011;67098;51.140;4.088;2023-03-01T01:26:10;17.25;;;9.55;;
32216;SDS011;67098;51.140;4.088;2023-03-01T01:28:38;18.83;;;9.70;;
32216;SDS011;67098;51.140;4.088;2023-03-01T01:31:05;19.98;;;9.77;;
32216;SDS011;67098;51.140;4.088;2023-03-01T01:33:31;21.23;;;9.45;;
32216;SDS011;67098;51.140;4.088;2023-03-01T01:35:57;19.95;;;9.82;;
32216;SDS011;67098;51.140;4.088;2023-03-01T01:38:23;20.58;;;9.52;;
32216;SDS011;67098;51.140;4.088;2023-03-01T01:40:49;18.90;;;9.07;;
32216;SDS011;67098;51.140;4.088;2023-03-01T01:43:23;22.48;;;10.05;;
32216;SDS011;67098;51.140;4.088;2023-03-01T01:45:50;19.63;;;9.90;;
32216;SDS011;67098;51.140;4.088;2023-03-01T01:48:20;21.42;;;9.77;;
32216;SDS011;67098;51.140;4.088;2023-03-01T01:50:51;20.40;;;10.48;;
32216;SDS011;67098;51.140;4.088;2023-03-01T01:53:22;17.73;;;10.23;;
32216;SDS011;67098;51.140;4.088;2023-03-01T01:55:51;19.63;;;10.23;;
32216;SDS011;67098;51.140;4.088;2023-03-01T01:58:22;22.13;;;10.38;;
32216;SDS011;67098;51.140;4.088;2023-03-01T02:00:51;18.08;;;9.90;;
32216;SDS011;67098;51.140;4.088;2023-03-01T02:03:18;23.40;;;10.20;;
32216;SDS011;67098;51.140;4.088;2023-03-01T02:08:30;21.90;;;10.57;;
32216;SDS011;67098;51.140;4.088;2023-03-01T02:10:59;19.20;;;10.38;;
32216;SDS011;67098;51.140;4.088;2023-03-01T02:13:26;20.40;;;10.38;;
32216;SDS011;67098;51.140;4.088;2023-03-01T02:15:52;20.33;;;9.95;;
32216;SDS011;67098;51.140;4.088;2023-03-01T02:18:18;16.70;;;9.88;;
32216;SDS011;67098;51.140;4.088;2023-03-01T02:20:57;19.20;;;10.18;;
32216;SDS011;67098;51.140;4.088;2023-03-01T02:23:25;19.33;;;9.60;;
32216;SDS011;67098;51.140;4.088;2023-03-01T02:25:53;18.98;;;9.93;;
32216;SDS011;67098;51.140;4.088;2023-03-01T02:28:43;16.65;;;9.48;;
32216;SDS011;67098;51.140;4.088;2023-03-01T02:31:10;20.38;;;9.57;;
32216;SDS011;67098;51.140;4.088;2023-03-01T02:33:58;17.63;;;9.77;;
32216;SDS011;67098;51.140;4.088;2023-03-01T02:36:26;20.00;;;9.80;;
32216;SDS011;67098;51.140;4.088;2023-03-01T02:38:57;16.83;;;9.48;;
32216;SDS011;67098;51.140;4.088;2023-03-01T02:41:25;24.35;;;10.23;;
32216;SDS011;67098;51.140;4.088;2023-03-01T02:43:53;14.65;;;9.55;;
32216;SDS011;67098;51.140;4.088;2023-03-01T02:46:20;18.02;;;10.07;;
32216;SDS011;67098;51.140;4.088;2023-03-01T02:48:51;22.10;;;9.75;;
32216;SDS011;67098;51.140;4.088;2023-03-01T02:56:24;16.48;;;8.98;;
32216;SDS011;67098;51.140;4.088;2023-03-01T02:58:50;21.15;;;10.77;;
32216;SDS011;67098;51.140;4.088;2023-03-01T03:01:17;22.80;;;10.75;;
32216;SDS011;67098;51.140;4.088;2023-03-01T03:03:44;21.48;;;10.48;;
32216;SDS011;67098;51.140;4.088;2023-03-01T03:06:10;21.35;;;11.07;;
32216;SDS011;67098;51.140;4.088;2023-03-01T03:08:35;22.08;;;11.63;;
32216;SDS011;67098;51.140;4.088;2023-03-01T03:11:01;21.95;;;11.50;;
32216;SDS011;67098;51.140;4.088;2023-03-01T03:13:27;24.25;;;11.32;;
32216;SDS011;67098;51.140;4.088;2023-03-01T03:15:56;26.48;;;13.15;;
32216;SDS011;67098;51.140;4.088;2023-03-01T03:18:22;27.27;;;12.93;;
32216;SDS011;67098;51.140;4.088;2023-03-01T03:20:51;22.85;;;12.55;;
32216;SDS011;67098;51.140;4.088;2023-03-01T03:23:18;24.90;;;13.32;;
32216;SDS011;67098;51.140;4.088;2023-03-01T03:25:48;25.23;;;14.40;;
32216;SDS011;67098;51.140;4.088;2023-03-01T03:28:14;25.73;;;14.10;;
32216;SDS011;67098;51.140;4.088;2023-03-01T03:30:41;25.48;;;14.40;;
32216;SDS011;67098;51.140;4.088;2023-03-01T03:33:07;29.35;;;15.10;;
32216;SDS011;67098;51.140;4.088;2023-03-01T03:35:38;28.20;;;15.50;;
32216;SDS011;67098;51.140;4.088;2023-03-01T03:38:07;32.45;;;15.40;;
32216;SDS011;67098;51.140;4.088;2023-03-01T03:40:41;27.98;;;15.10;;
32216;SDS011;67098;51.140;4.088;2023-03-01T03:43:16;34.42;;;16.67;;
32216;SDS011;67098;51.140;4.088;2023-03-01T03:45:47;35.72;;;17.17;;
32216;SDS011;67098;51.140;4.088;2023-03-01T03:48:14;33.88;;;16.08;;
32216;SDS011;67098;51.140;4.088;2023-03-01T03:50:41;27.85;;;16.08;;
32216;SDS011;67098;51.140;4.088;2023-03-01T03:55:37;30.42;;;16.00;;
32216;SDS011;67098;51.140;4.088;2023-03-01T03:58:07;36.63;;;17.73;;
32216;SDS011;67098;51.140;4.088;2023-03-01T04:00:35;32.22;;;16.35;;
32216;SDS011;67098;51.140;4.088;2023-03-01T04:03:06;32.88;;;16.48;;
32216;SDS011;67098;51.140;4.088;2023-03-01T04:05:32;33.13;;;17.20;;
32216;SDS011;67098;51.140;4.088;2023-03-01T04:07:58;32.78;;;16.75;;
32216;SDS011;67098;51.140;4.088;2023-03-01T04:10:31;29.90;;;15.30;;
32216;SDS011;67098;51.140;4.088;2023-03-01T04:13:00;32.80;;;16.65;;
32216;SDS011;67098;51.140;4.088;2023-03-01T04:15:26;33.90;;;15.65;;
32216;SDS011;67098;51.140;4.088;2023-03-01T04:17:53;31.10;;;15.70;;
32216;SDS011;67098;51.140;4.088;2023-03-01T04:20:23;33.67;;;16.20;;
32216;SDS011;67098;51.140;4.088;2023-03-01T04:22:50;28.60;;;15.07;;
32216;SDS011;67098;51.140;4.088;2023-03-01T04:25:22;30.58;;;15.32;;
32216;SDS011;67098;51.140;4.088;2023-03-01T04:27:49;29.45;;;15.43;;
32216;SDS011;67098;51.140;4.088;2023-03-01T04:30:14;27.40;;;15.75;;
32216;SDS011;67098;51.140;4.088;2023-03-01T04:32:40;29.38;;;15.27;;
32216;SDS011;67098;51.140;4.088;2023-03-01T04:35:06;29.42;;;15.02;;
32216;SDS011;67098;51.140;4.088;2023-03-01T04:37:32;30.58;;;15.38;;
32216;SDS011;67098;51.140;4.088;2023-03-01T04:39:57;28.70;;;15.07;;
32216;SDS011;67098;51.140;4.088;2023-03-01T04:42:23;31.05;;;16.15;;
32216;SDS011;67098;51.140;4.088;2023-03-01T04:44:49;30.95;;;15.35;;
32216;SDS011;67098;51.140;4.088;2023-03-01T04:47:16;29.83;;;15.80;;
32216;SDS011;67098;51.140;4.088;2023-03-01T04:49:42;33.05;;;15.82;;
32216;SDS011;67098;51.140;4.088;2023-03-01T04:52:08;31.23;;;16.40;;
32216;SDS011;67098;51.140;4.088;2023-03-01T04:54:34;31.00;;;15.88;;
32216;SDS011;67098;51.140;4.088;2023-03-01T04:57:01;31.77;;;16.08;;
32216;SDS011;67098;51.140;4.088;2023-03-01T04:59:27;31.38;;;15.60;;
32216;SDS011;67098;51.140;4.088;2023-03-01T05:01:54;30.65;;;16.77;;
32216;SDS011;67098;51.140;4.088;2023-03-01T05:04:21;32.90;;;15.93;;
32216;SDS011;67098;51.140;4.088;2023-03-01T05:06:49;32.78;;;15.95;;
32216;SDS011;67098;51.140;4.088;2023-03-01T05:09:15;31.10;;;16.00;;
32216;SDS011;67098;51.140;4.088;2023-03-01T05:11:41;28.75;;;15.38;;
32216;SDS011;67098;51.140;4.088;2023-03-01T05:14:07;28.40;;;15.18;;
32216;SDS011;67098;51.140;4.088;2023-03-01T05:16:34;28.08;;;14.80;;
32216;SDS011;67098;51.140;4.088;2023-03-01T05:19:01;25.48;;;13.73;;
32216;SDS011;67098;51.140;4.088;2023-03-01T05:21:36;28.48;;;14.35;;
32216;SDS011;67098;51.140;4.088;2023-03-01T05:24:25;25.20;;;13.77;;
32216;SDS011;67098;51.140;4.088;2023-03-01T05:26:51;28.48;;;14.57;;
32216;SDS011;67098;51.140;4.088;2023-03-01T05:29:18;25.23;;;14.57;;
32216;SDS011;67098;51.140;4.088;2023-03-01T05:31:50;29.15;;;14.75;;
32216;SDS011;67098;51.140;4.088;2023-03-01T05:34:33;27.88;;;14.00;;
32216;SDS011;67098;51.140;4.088;2023-03-01T05:37:00;30.17;;;14.57;;
32216;SDS011;67098;51.140;4.088;2023-03-01T05:39:28;24.77;;;13.25;;
32216;SDS011;67098;51.140;4.088;2023-03-01T05:41:58;26.48;;;14.48;;
32216;SDS011;67098;51.140;4.088;2023-03-01T05:44:26;25.80;;;14.32;;
32216;SDS011;67098;51.140;4.088;2023-03-01T05:46:52;25.17;;;13.77;;
32216;SDS011;67098;51.140;4.088;2023-03-01T05:49:18;26.77;;;13.15;;
32216;SDS011;67098;51.140;4.088;2023-03-01T05:51:47;25.23;;;13.40;;
32216;SDS011;67098;51.140;4.088;2023-03-01T05:54:14;22.80;;;12.38;;
32216;SDS011;67098;51.140;4.088;2023-03-01T05:56:39;27.30;;;13.70;;
32216;SDS011;67098;51.140;4.088;2023-03-01T05:59:05;27.77;;;13.70;;
32216;SDS011;67098;51.140;4.088;2023-03-01T06:01:31;28.63;;;13.30;;
32216;SDS011;67098;51.140;4.088;2023-03-01T06:03:58;25.88;;;13.18;;
32216;SDS011;67098;51.140;4.088;2023-03-01T06:06:23;24.73;;;13.70;;
32216;SDS011;67098;51.140;4.088;2023-03-01T06:08:50;24.15;;;13.70;;
32216;SDS011;67098;51.140;4.088;2023-03-01T06:11:16;25.77;;;13.60;;
32216;SDS011;67098;51.140;4.088;2023-03-01T06:13:42;24.98;;;14.30;;
32216;SDS011;67098;51.140;4.088;2023-03-01T06:16:09;23.50;;;13.55;;
32216;SDS011;67098;51.140;4.088;2023-03-01T06:18:35;27.17;;;13.65;;
32216;SDS011;67098;51.140;4.088;2023-03-01T06:21:01;24.60;;;12.13;;
32216;SDS011;67098;51.140;4.088;2023-03-01T06:23:27;21.55;;;12.55;;
32216;SDS011;67098;51.140;4.088;2023-03-01T06:25:53;28.80;;;13.50;;
32216;SDS011;67098;51.140;4.088;2023-03-01T06:28:18;25.13;;;13.27;;
32216;SDS011;67098;51.140;4.088;2023-03-01T06:30:44;25.25;;;12.93;;
32216;SDS011;67098;51.140;4.088;2023-03-01T06:33:09;23.92;;;13.32;;
32216;SDS011;67098;51.140;4.088;2023-03-01T06:35:35;23.92;;;13.25;;
32216;SDS011;67098;51.140;4.088;2023-03-01T06:38:01;32.17;;;13.50;;
32216;SDS011;67098;51.140;4.088;2023-03-01T06:40:29;27.80;;;14.68;;
32216;SDS011;67098;51.140;4.088;2023-03-01T06:42:56;28.85;;;15.52;;
32216;SDS011;67098;51.140;4.088;2023-03-01T06:45:23;32.78;;;15.93;;
32216;SDS011;67098;51.140;4.088;2023-03-01T06:47:49;37.60;;;16.75;;
32216;SDS011;67098;51.140;4.088;2023-03-01T06:50:15;36.67;;;16.45;;
32216;SDS011;67098;51.140;4.088;2023-03-01T06:52:42;34.67;;;15.48;;
32216;SDS011;67098;51.140;4.088;2023-03-01T06:55:09;36.30;;;16.63;;
32216;SDS011;67098;51.140;4.088;2023-03-01T06:57:36;35.85;;;16.42;;
32216;SDS011;67098;51.140;4.088;2023-03-01T07:00:02;31.10;;;15.88;;
32216;SDS011;67098;51.140;4.088;2023-03-01T07:02:29;34.20;;;15.63;;
32216;SDS011;67098;51.140;4.088;2023-03-01T07:04:55;33.53;;;15.85;;
32216;SDS011;67098;51.140;4.088;2023-03-01T07:07:20;34.92;;;15.75;;
32216;SDS011;67098;51.140;4.088;2023-03-01T07:09:46;37.28;;;16.80;;
32216;SDS011;67098;51.140;4.088;2023-03-01T07:12:13;43.65;;;17.33;;
32216;SDS011;67098;51.140;4.088;2023-03-01T07:14:39;30.55;;;16.30;;
32216;SDS011;67098;51.140;4.088;2023-03-01T07:17:04;32.30;;;15.98;;
32216;SDS011;67098;51.140;4.088;2023-03-01T07:19:30;34.40;;;16.45;;
32216;SDS011;67098;51.140;4.088;2023-03-01T07:21:56;34.78;;;16.33;;
32216;SDS011;67098;51.140;4.088;2023-03-01T07:24:21;42.38;;;17.73;;
32216;SDS011;67098;51.140;4.088;2023-03-01T07:26:48;40.13;;;18.67;;
32216;SDS011;67098;51.140;4.088;2023-03-01T07:29:15;49.15;;;19.33;;
32216;SDS011;67098;51.140;4.088;2023-03-01T07:31:41;40.45;;;19.13;;
32216;SDS011;67098;51.140;4.088;2023-03-01T07:34:06;42.53;;;19.85;;
32216;SDS011;67098;51.140;4.088;2023-03-01T07:36:32;40.25;;;19.80;;
32216;SDS011;67098;51.140;4.088;2023-03-01T07:38:58;36.35;;;16.58;;
32216;SDS011;67098;51.140;4.088;2023-03-01T07:41:24;29.13;;;15.68;;
32216;SDS011;67098;51.140;4.088;2023-03-01T07:43:49;28.27;;;14.70;;
32216;SDS011;67098;51.140;4.088;2023-03-01T07:46:15;30.67;;;13.60;;
32216;SDS011;67098;51.140;4.088;2023-03-01T07:48:41;27.60;;;12.00;;
32216;SDS011;67098;51.140;4.088;2023-03-01T07:51:07;25.48;;;11.80;;
32216;SDS011;67098;51.140;4.088;2023-03-01T07:53:33;22.27;;;11.35;;
32216;SDS011;67098;51.140;4.088;2023-03-01T07:56:06;25.27;;;13.02;;
32216;SDS011;67098;51.140;4.088;2023-03-01T07:58:34;26.25;;;12.18;;
32216;SDS011;67098;51.140;4.088;2023-03-01T08:01:01;34.38;;;13.93;;
32216;SDS011;67098;51.140;4.088;2023-03-01T08:03:28;34.70;;;14.15;;
32216;SDS011;67098;51.140;4.088;2023-03-01T08:05:53;38.67;;;15.25;;
32216;SDS011;67098;51.140;4.088;2023-03-01T08:08:19;32.95;;;12.98;;
32216;SDS011;67098;51.140;4.088;2023-03-01T08:10:45;32.05;;;12.52;;
32216;SDS011;67098;51.140;4.088;2023-03-01T08:13:10;32.67;;;14.93;;
32216;SDS011;67098;51.140;4.088;2023-03-01T08:15:36;38.22;;;15.57;;
32216;SDS011;67098;51.140;4.088;2023-03-01T08:18:02;31.98;;;12.02;;
32216;SDS011;67098;51.140;4.088;2023-03-01T08:20:27;28.67;;;12.68;;
32216;SDS011;67098;51.140;4.088;2023-03-01T08:22:53;27.55;;;11.88;;
32216;SDS011;67098;51.140;4.088;2023-03-01T08:25:18;35.20;;;13.65;;
32216;SDS011;67098;51.140;4.088;2023-03-01T08:27:44;20.92;;;10.38;;
32216;SDS011;67098;51.140;4.088;2023-03-01T08:30:10;24.15;;;12.25;;
32216;SDS011;67098;51.140;4.088;2023-03-01T08:32:37;26.67;;;12.63;;
32216;SDS011;67098;51.140;4.088;2023-03-01T08:35:03;17.10;;;9.05;;
32216;SDS011;67098;51.140;4.088;2023-03-01T08:37:29;15.23;;;8.85;;
32216;SDS011;67098;51.140;4.088;2023-03-01T08:39:58;19.90;;;9.40;;
32216;SDS011;67098;51.140;4.088;2023-03-01T08:42:25;22.10;;;9.63;;
32216;SDS011;67098;51.140;4.088;2023-03-01T08:44:51;18.48;;;9.27;;
32216;SDS011;67098;51.140;4.088;2023-03-01T08:47:17;14.52;;;8.32;;
32216;SDS011;67098;51.140;4.088;2023-03-01T08:49:43;15.80;;;9.10;;
32216;SDS011;67098;51.140;4.088;2023-03-01T08:52:09;17.60;;;8.80;;
32216;SDS011;67098;51.140;4.088;2023-03-01T08:54:34;16.20;;;8.15;;
32216;SDS011;67098;51.140;4.088;2023-03-01T08:57:03;16.80;;;8.68;;
32216;SDS011;67098;51.140;4.088;2023-03-01T08:59:29;15.82;;;8.70;;
32216;SDS011;67098;51.140;4.088;2023-03-01T09:01:55;19.48;;;8.52;;
32216;SDS011;67098;51.140;4.088;2023-03-01T09:04:21;18.95;;;8.50;;
32216;SDS011;67098;51.140;4.088;2023-03-01T09:06:46;17.85;;;9.32;;
32216;SDS011;67098;51.140;4.088;2023-03-01T09:09:16;19.40;;;8.18;;
32216;SDS011;67098;51.140;4.088;2023-03-01T09:11:43;14.48;;;8.48;;
32216;SDS011;67098;51.140;4.088;2023-03-01T09:14:11;18.35;;;8.48;;
32216;SDS011;67098;51.140;4.088;2023-03-01T09:16:37;20.55;;;8.70;;
32216;SDS011;67098;51.140;4.088;2023-03-01T09:19:03;16.05;;;8.30;;
32216;SDS011;67098;51.140;4.088;2023-03-01T09:21:29;14.98;;;8.70;;
32216;SDS011;67098;51.140;4.088;2023-03-01T09:23:55;19.75;;;8.35;;
32216;SDS011;67098;51.140;4.088;2023-03-01T09:26:22;19.65;;;8.63;;
32216;SDS011;67098;51.140;4.088;2023-03-01T09:28:49;14.82;;;8.57;;
32216;SDS011;67098;51.140;4.088;2023-03-01T09:31:17;17.30;;;8.23;;
32216;SDS011;67098;51.140;4.088;2023-03-01T09:33:47;17.75;;;8.98;;
32216;SDS011;67098;51.140;4.088;2023-03-01T09:36:15;16.73;;;8.48;;
32216;SDS011;67098;51.140;4.088;2023-03-01T09:38:43;28.90;;;9.00;;
32216;SDS011;67098;51.140;4.088;2023-03-01T09:44:27;19.42;;;9.25;;
32216;SDS011;67098;51.140;4.088;2023-03-01T09:47:03;18.17;;;8.45;;
32216;SDS011;67098;51.140;4.088;2023-03-01T09:49:35;16.95;;;9.43;;
32216;SDS011;67098;51.140;4.088;2023-03-01T09:52:28;16.67;;;8.65;;
32216;SDS011;67098;51.140;4.088;2023-03-01T09:55:04;15.60;;;8.80;;
32216;SDS011;67098;51.140;4.088;2023-03-01T10:00:33;20.60;;;9.43;;
32216;SDS011;67098;51.140;4.088;2023-03-01T10:03:12;14.90;;;8.15;;
32216;SDS011;67098;51.140;4.088;2023-03-01T10:08:29;20.38;;;10.02;;
32216;SDS011;67098;51.140;4.088;2023-03-01T10:11:04;26.20;;;10.85;;
32216;SDS011;67098;51.140;4.088;2023-03-01T10:13:46;17.98;;;9.00;;
32216;SDS011;67098;51.140;4.088;2023-03-01T10:16:43;15.05;;;7.78;;
32216;SDS011;67098;51.140;4.088;2023-03-01T10:19:17;20.75;;;8.68;;
32216;SDS011;67098;51.140;4.088;2023-03-01T10:21:48;15.02;;;8.35;;
32216;SDS011;67098;51.140;4.088;2023-03-01T10:24:17;14.93;;;8.23;;
32216;SDS011;67098;51.140;4.088;2023-03-01T10:26:56;15.30;;;8.10;;
32216;SDS011;67098;51.140;4.088;2023-03-01T10:29:31;13.93;;;7.97;;
32216;SDS011;67098;51.140;4.088;2023-03-01T10:32:04;14.02;;;8.25;;
32216;SDS011;67098;51.140;4.088;2023-03-01T10:34:33;16.60;;;8.18;;
32216;SDS011;67098;51.140;4.088;2023-03-01T10:39:37;14.40;;;8.27;;
32216;SDS011;67098;51.140;4.088;2023-03-01T10:42:32;13.18;;;7.72;;
32216;SDS011;67098;51.140;4.088;2023-03-01T10:45:45;13.60;;;7.57;;
32216;SDS011;67098;51.140;4.088;2023-03-01T10:48:05;11.98;;;6.95;;
32216;SDS011;67098;51.140;4.088;2023-03-01T10:50:39;18.85;;;7.85;;
32216;SDS011;67098;51.140;4.088;2023-03-01T10:53:24;15.10;;;8.27;;
32216;SDS011;67098;51.140;4.088;2023-03-01T10:55:57;23.20;;;9.18;;
32216;SDS011;67098;51.140;4.088;2023-03-01T10:58:25;13.50;;;8.00;;
32216;SDS011;67098;51.140;4.088;2023-03-01T11:00:52;17.88;;;8.63;;
32216;SDS011;67098;51.140;4.088;2023-03-01T11:03:32;14.32;;;7.38;;
32216;SDS011;67098;51.140;4.088;2023-03-01T11:06:01;13.18;;;7.63;;
32216;SDS011;67098;51.140;4.088;2023-03-01T11:08:48;18.75;;;8.23;;
32216;SDS011;67098;51.140;4.088;2023-03-01T11:16:42;16.83;;;7.15;;
32216;SDS011;67098;51.140;4.088;2023-03-01T11:21:40;14.02;;;7.35;;
32216;SDS011;67098;51.140;4.088;2023-03-01T11:24:53;11.13;;;6.43;;
32216;SDS011;67098;51.140;4.088;2023-03-01T11:27:24;18.88;;;8.45;;
32216;SDS011;67098;51.140;4.088;2023-03-01T11:32:35;17.90;;;8.20;;
32216;SDS011;67098;51.140;4.088;2023-03-01T11:35:15;11.95;;;6.50;;
32216;SDS011;67098;51.140;4.088;2023-03-01T11:38:01;16.17;;;7.50;;
32216;SDS011;67098;51.140;4.088;2023-03-01T11:40:43;18.25;;;7.93;;
32216;SDS011;67098;51.140;4.088;2023-03-01T11:43:22;11.15;;;7.25;;
32216;SDS011;67098;51.140;4.088;2023-03-01T11:46:01;17.33;;;8.35;;
32216;SDS011;67098;51.140;4.088;2023-03-01T11:51:29;10.43;;;6.93;;
32216;SDS011;67098;51.140;4.088;2023-03-01T12:31:11;13.65;;;7.07;;
32216;SDS011;67098;51.140;4.088;2023-03-01T12:34:02;11.93;;;7.20;;
32216;SDS011;67098;51.140;4.088;2023-03-01T12:39:20;11.35;;;6.53;;
32216;SDS011;67098;51.140;4.088;2023-03-01T12:45:04;11.23;;;7.07;;
32216;SDS011;67098;51.140;4.088;2023-03-01T12:53:14;11.80;;;6.70;;
32216;SDS011;67098;51.140;4.088;2023-03-01T12:55:49;13.23;;;6.65;;
32216;SDS011;67098;51.140;4.088;2023-03-01T13:09:27;14.05;;;6.72;;
32216;SDS011;67098;51.140;4.088;2023-03-01T13:12:42;10.13;;;6.45;;
32216;SDS011;67098;51.140;4.088;2023-03-01T13:17:55;10.60;;;6.13;;
32216;SDS011;67098;51.140;4.088;2023-03-01T13:31:03;10.27;;;6.05;;
32216;SDS011;67098;51.140;4.088;2023-03-01T13:35:58;11.80;;;6.43;;
32216;SDS011;67098;51.140;4.088;2023-03-01T13:41:04;10.88;;;6.30;;
32216;SDS011;67098;51.140;4.088;2023-03-01T13:43:31;10.60;;;6.75;;
32216;SDS011;67098;51.140;4.088;2023-03-01T13:46:16;10.73;;;6.50;;
32216;SDS011;67098;51.140;4.088;2023-03-01T13:48:45;11.18;;;6.20;;
32216;SDS011;67098;51.140;4.088;2023-03-01T13:51:15;10.80;;;6.83;;
32216;SDS011;67098;51.140;4.088;2023-03-01T13:53:45;12.57;;;6.97;;
32216;SDS011;67098;51.140;4.088;2023-03-01T13:56:16;11.43;;;6.47;;
32216;SDS011;67098;51.140;4.088;2023-03-01T13:59:20;11.30;;;7.07;;
32216;SDS011;67098;51.140;4.088;2023-03-01T14:01:39;10.52;;;6.22;;
32216;SDS011;67098;51.140;4.088;2023-03-01T14:07:16;10.02;;;5.65;;
32216;SDS011;67098;51.140;4.088;2023-03-01T14:09:43;8.75;;;5.97;;
32216;SDS011;67098;51.140;4.088;2023-03-01T14:15:06;12.40;;;6.15;;
32216;SDS011;67098;51.140;4.088;2023-03-01T14:20:18;9.50;;;5.88;;
32216;SDS011;67098;51.140;4.088;2023-03-01T14:22:52;11.93;;;6.28;;
32216;SDS011;67098;51.140;4.088;2023-03-01T14:25:27;12.88;;;6.72;;
32216;SDS011;67098;51.140;4.088;2023-03-01T14:28:39;10.50;;;5.82;;
32216;SDS011;67098;51.140;4.088;2023-03-01T14:30:52;10.73;;;5.68;;
32216;SDS011;67098;51.140;4.088;2023-03-01T14:33:23;11.02;;;6.55;;
32216;SDS011;67098;51.140;4.088;2023-03-01T14:35:55;10.07;;;6.30;;
32216;SDS011;67098;51.140;4.088;2023-03-01T14:38:37;8.80;;;6.30;;
32216;SDS011;67098;51.140;4.088;2023-03-01T14:41:06;11.83;;;6.47;;
32216;SDS011;67098;51.140;4.088;2023-03-01T14:43:44;15.23;;;6.72;;
32216;SDS011;67098;51.140;4.088;2023-03-01T14:46:45;10.90;;;6.55;;
32216;SDS011;67098;51.140;4.088;2023-03-01T14:51:59;10.63;;;6.57;;
32216;SDS011;67098;51.140;4.088;2023-03-01T14:57:05;9.65;;;6.28;;
32216;SDS011;67098;51.140;4.088;2023-03-01T14:59:32;14.35;;;6.80;;
32216;SDS011;67098;51.140;4.088;2023-03-01T15:01:58;12.82;;;7.47;;
32216;SDS011;67098;51.140;4.088;2023-03-01T15:04:25;9.25;;;6.63;;
32216;SDS011;67098;51.140;4.088;2023-03-01T15:06:53;11.48;;;7.28;;
32216;SDS011;67098;51.140;4.088;2023-03-01T15:09:20;11.50;;;6.95;;
32216;SDS011;67098;51.140;4.088;2023-03-01T15:11:47;12.50;;;7.00;;
32216;SDS011;67098;51.140;4.088;2023-03-01T15:14:26;11.95;;;6.97;;
32216;SDS011;67098;51.140;4.088;2023-03-01T15:19:46;22.55;;;9.43;;
32216;SDS011;67098;51.140;4.088;2023-03-01T15:22:14;13.48;;;7.65;;
32216;SDS011;67098;51.140;4.088;2023-03-01T15:24:41;10.88;;;6.97;;
32216;SDS011;67098;51.140;4.088;2023-03-01T15:27:29;14.73;;;7.63;;
32216;SDS011;67098;51.140;4.088;2023-03-01T15:29:55;14.07;;;6.97;;
32216;SDS011;67098;51.140;4.088;2023-03-01T15:32:35;16.38;;;6.65;;
32216;SDS011;67098;51.140;4.088;2023-03-01T15:40:54;10.90;;;6.63;;
32216;SDS011;67098;51.140;4.088;2023-03-01T15:46:33;16.43;;;8.27;;
32216;SDS011;67098;51.140;4.088;2023-03-01T15:49:03;17.80;;;7.35;;
32216;SDS011;67098;51.140;4.088;2023-03-01T15:51:32;14.13;;;8.18;;
32216;SDS011;67098;51.140;4.088;2023-03-01T15:54:01;11.93;;;7.45;;
32216;SDS011;67098;51.140;4.088;2023-03-01T15:56:29;14.20;;;6.75;;
32216;SDS011;67098;51.140;4.088;2023-03-01T15:58:58;12.70;;;7.07;;
32216;SDS011;67098;51.140;4.088;2023-03-01T16:01:25;11.73;;;6.72;;
32216;SDS011;67098;51.140;4.088;2023-03-01T16:03:51;12.90;;;8.02;;
32216;SDS011;67098;51.140;4.088;2023-03-01T16:06:18;15.85;;;7.47;;
32216;SDS011;67098;51.140;4.088;2023-03-01T16:08:44;13.63;;;7.75;;
32216;SDS011;67098;51.140;4.088;2023-03-01T16:11:14;14.25;;;8.20;;
32216;SDS011;67098;51.140;4.088;2023-03-01T16:13:42;14.20;;;7.65;;
32216;SDS011;67098;51.140;4.088;2023-03-01T16:16:09;18.30;;;7.43;;
32216;SDS011;67098;51.140;4.088;2023-03-01T16:18:39;17.27;;;7.57;;
32216;SDS011;67098;51.140;4.088;2023-03-01T16:21:05;15.73;;;7.32;;
32216;SDS011;67098;51.140;4.088;2023-03-01T16:23:31;14.32;;;7.43;;
32216;SDS011;67098;51.140;4.088;2023-03-01T16:26:00;19.30;;;8.20;;
32216;SDS011;67098;51.140;4.088;2023-03-01T16:28:26;13.60;;;8.27;;
32216;SDS011;67098;51.140;4.088;2023-03-01T16:30:51;14.40;;;7.97;;
32216;SDS011;67098;51.140;4.088;2023-03-01T16:33:17;13.13;;;7.32;;
32216;SDS011;67098;51.140;4.088;2023-03-01T16:35:43;12.30;;;7.35;;
32216;SDS011;67098;51.140;4.088;2023-03-01T16:38:09;14.85;;;7.70;;
32216;SDS011;67098;51.140;4.088;2023-03-01T16:40:35;14.38;;;8.60;;
32216;SDS011;67098;51.140;4.088;2023-03-01T16:43:01;14.00;;;7.75;;
32216;SDS011;67098;51.140;4.088;2023-03-01T16:45:27;13.43;;;7.78;;
32216;SDS011;67098;51.140;4.088;2023-03-01T16:47:57;14.60;;;8.45;;
32216;SDS011;67098;51.140;4.088;2023-03-01T16:50:23;18.75;;;9.20;;
32216;SDS011;67098;51.140;4.088;2023-03-01T16:52:50;15.18;;;8.65;;
32216;SDS011;67098;51.140;4.088;2023-03-01T16:55:15;13.40;;;8.10;;
32216;SDS011;67098;51.140;4.088;2023-03-01T16:57:41;11.45;;;7.80;;
32216;SDS011;67098;51.140;4.088;2023-03-01T17:00:07;13.88;;;8.15;;
32216;SDS011;67098;51.140;4.088;2023-03-01T17:02:34;15.40;;;8.25;;
32216;SDS011;67098;51.140;4.088;2023-03-01T17:05:01;16.52;;;8.60;;
32216;SDS011;67098;51.140;4.088;2023-03-01T17:07:28;14.75;;;8.85;;